Time;durP1;ratioP1;P1;durP2;ratioP2;P2;SDS_P1;SDS_P2;PMS_P1;PMS_P2;Temp;Humidity;BMP_temperature;BMP_pressure;BME280_temperature;BME280_humidity;BME280_pressure;Samples;Min_cycle;Max_cycle;Signal;HPM_P1;HPM_P2
2023/06/12 00:00:54;;;;;;;1.73;1.40;;;17.00;45.00;;;;;;5036574;28;20494;-69
2023/06/12 00:03:31;;;;;;;1.25;1.05;;;17.00;45.50;;;;;;5035517;28;20823;-69
2023/06/12 00:05:59;;;;;;;1.10;1.10;;;17.00;46.20;;;;;;5036350;28;20451;-69
2023/06/12 00:08:30;;;;;;;1.90;1.33;;;17.00;47.10;;;;;;5037817;28;20443;-70
2023/06/12 00:10:58;;;;;;;1.30;1.30;;;17.00;47.30;;;;;;5041769;28;20429;-69
2023/06/12 00:13:28;;;;;;;1.73;1.27;;;16.90;47.10;;;;;;5037153;28;20437;-70
2023/06/12 00:15:57;;;;;;;1.60;1.50;;;16.80;47.00;;;;;;5031801;28;20466;-70
2023/06/12 00:18:29;;;;;;;1.52;1.45;;;16.80;46.90;;;;;;5028830;28;20433;-69
2023/06/12 00:20:56;;;;;;;1.52;1.42;;;16.70;47.50;;;;;;5034971;28;20463;-70
2023/06/12 00:23:25;;;;;;;1.60;1.30;;;16.60;47.70;;;;;;5036396;28;20528;-70
2023/06/12 00:25:51;;;;;;;2.67;1.57;;;16.60;48.20;;;;;;5037623;28;20507;-70
2023/06/12 00:28:18;;;;;;;1.38;1.38;;;16.60;49.70;;;;;;5036871;28;20463;-69
2023/06/12 00:30:45;;;;;;;1.47;1.37;;;16.60;49.00;;;;;;5040035;28;20507;-69
2023/06/12 00:33:11;;;;;;;1.20;1.20;;;16.50;49.40;;;;;;5036445;28;20435;-70
2023/06/12 00:35:38;;;;;;;1.20;1.17;;;16.50;50.20;;;;;;5038037;28;20557;-70
2023/06/12 00:38:06;;;;;;;2.40;1.50;;;16.50;51.30;;;;;;5041239;28;20947;-70
2023/06/12 00:40:33;;;;;;;1.47;1.37;;;16.60;51.00;;;;;;5040935;28;20445;-70
2023/06/12 00:43:01;;;;;;;2.33;1.60;;;16.50;52.50;;;;;;5044166;28;20495;-69
2023/06/12 00:45:28;;;;;;;1.70;1.60;;;16.50;53.20;;;;;;5040505;28;20433;-70
2023/06/12 00:47:58;;;;;;;1.48;1.45;;;16.50;53.30;;;;;;5074488;28;20430;-69
2023/06/12 00:50:28;;;;;;;1.00;1.00;;;16.50;53.00;;;;;;5038571;28;20860;-70
2023/06/12 00:52:57;;;;;;;1.50;1.40;;;16.50;54.00;;;;;;5037789;28;20508;-70
2023/06/12 00:55:25;;;;;;;1.33;1.23;;;16.50;56.20;;;;;;5040049;28;20469;-70
2023/06/12 00:57:52;;;;;;;1.50;1.40;;;16.60;55.60;;;;;;5040761;28;20470;-70
2023/06/12 01:00:19;;;;;;;1.60;1.50;;;16.60;57.00;;;;;;5034741;28;20790;-70
2023/06/12 01:02:51;;;;;;;3.78;1.40;;;16.60;57.00;;;;;;5041577;28;20455;-69
2023/06/12 01:05:32;;;;;;;1.38;1.35;;;16.70;57.20;;;;;;5041135;28;20811;-69
2023/06/12 01:08:28;;;;;;;1.40;1.30;;;16.70;57.60;;;;;;5039607;28;20425;-70
2023/06/12 01:11:05;;;;;;;1.40;1.30;;;16.60;58.10;;;;;;5041001;28;20462;-70
2023/06/12 01:13:33;;;;;;;1.30;1.20;;;16.60;59.10;;;;;;5035722;28;20999;-69
2023/06/12 01:16:00;;;;;;;1.40;1.40;;;16.60;59.00;;;;;;5042029;28;20437;-69
2023/06/12 01:18:29;;;;;;;1.77;1.40;;;16.60;59.50;;;;;;5039350;28;20464;-70
2023/06/12 01:20:58;;;;;;;2.05;1.67;;;16.60;60.20;;;;;;5040802;28;20425;-69
2023/06/12 01:24:02;;;;;;;1.50;1.40;;;16.60;61.10;;;;;;5044077;28;20476;-70
2023/06/12 01:26:48;;;;;;;4.50;1.40;;;16.50;60.70;;;;;;5039517;28;20849;-69
2023/06/12 01:29:37;;;;;;;1.45;1.38;;;16.50;62.20;;;;;;5039559;28;20428;-69
2023/06/12 01:32:37;;;;;;;1.38;1.27;;;16.50;62.70;;;;;;5036568;28;20460;-70
2023/06/12 01:35:13;;;;;;;1.43;1.23;;;16.30;62.90;;;;;;5040760;28;20441;-69
2023/06/12 01:37:50;;;;;;;1.10;1.08;;;16.30;63.30;;;;;;5071226;28;20487;-69
2023/06/12 01:40:19;;;;;;;1.55;1.45;;;16.30;64.10;;;;;;5039098;28;20461;-69
2023/06/12 01:42:46;;;;;;;1.40;1.30;;;16.40;64.70;;;;;;5042280;28;20444;-69
2023/06/12 01:45:13;;;;;;;1.40;1.30;;;16.40;65.70;;;;;;5040686;28;20433;-70
2023/06/12 01:47:40;;;;;;;1.70;1.60;;;16.50;66.90;;;;;;5040905;28;20425;-70
2023/06/12 01:50:08;;;;;;;1.57;1.47;;;16.50;67.50;;;;;;5070593;28;20462;-70
2023/06/12 01:52:38;;;;;;;1.83;1.30;;;16.40;66.90;;;;;;5039063;28;21073;-70
2023/06/12 01:55:05;;;;;;;1.55;1.45;;;16.40;67.80;;;;;;5039657;28;20497;-69
2023/06/12 01:57:32;;;;;;;1.50;1.40;;;16.40;68.60;;;;;;5039623;28;20433;-70
2023/06/12 02:00:00;;;;;;;1.48;1.38;;;16.40;69.90;;;;;;5039244;28;20447;-70
2023/06/12 02:02:27;;;;;;;2.70;1.65;;;16.30;70.40;;;;;;5036651;28;20433;-70
2023/06/12 02:04:56;;;;;;;1.17;1.17;;;16.30;71.00;;;;;;5037487;28;20972;-70
2023/06/12 02:07:22;;;;;;;1.33;1.33;;;16.20;72.30;;;;;;5039568;28;21084;-70
2023/06/12 02:09:49;;;;;;;1.40;1.30;;;16.20;74.20;;;;;;5039623;28;20433;-70
2023/06/12 02:12:16;;;;;;;1.27;1.20;;;16.20;75.00;;;;;;5073299;28;20433;-70
2023/06/12 02:14:47;;;;;;;1.40;1.30;;;16.10;76.80;;;;;;5040941;28;20437;-70
2023/06/12 02:17:17;;;;;;;1.10;1.10;;;16.00;78.20;;;;;;5038611;28;20441;-70
2023/06/12 02:19:45;;;;;;;1.33;1.23;;;16.00;79.70;;;;;;5071256;28;20916;-70
2023/06/12 02:22:12;;;;;;;1.48;1.38;;;16.00;81.30;;;;;;5038178;28;21013;-70
2023/06/12 02:24:39;;;;;;;1.60;1.50;;;16.00;83.00;;;;;;5034440;28;20465;-70
2023/06/12 02:27:06;;;;;;;1.58;1.48;;;16.00;85.00;;;;;;5035151;28;20433;-70
2023/06/12 02:29:32;;;;;;;1.90;1.60;;;16.00;86.90;;;;;;5038089;28;20453;-70
2023/06/12 02:31:59;;;;;;;1.50;1.40;;;16.00;89.20;;;;;;5038043;28;20429;-70
2023/06/12 02:34:26;;;;;;;1.20;1.20;;;16.10;89.60;;;;;;5033820;28;20984;-70
2023/06/12 02:36:55;;;;;;;1.63;1.45;;;16.10;90.20;;;;;;5038804;28;20486;-70
2023/06/12 02:39:22;;;;;;;2.17;1.70;;;16.00;90.50;;;;;;5040970;28;20437;-69
2023/06/12 02:41:49;;;;;;;1.25;1.15;;;15.90;91.10;;;;;;5036674;28;20983;-70
2023/06/12 02:44:16;;;;;;;1.20;1.20;;;15.80;92.90;;;;;;5035229;28;20463;-70
2023/06/12 02:46:55;;;;;;;1.60;1.50;;;15.80;95.10;;;;;;5038766;28;20457;-70
2023/06/12 02:49:28;;;;;;;3.20;1.20;;;15.90;96.90;;;;;;5069058;28;20465;-70
2023/06/12 02:51:56;;;;;;;1.70;1.60;;;15.90;97.40;;;;;;5040938;28;20429;-70
2023/06/12 02:54:24;;;;;;;1.40;1.27;;;15.90;97.50;;;;;;5038317;28;20817;-70
2023/06/12 02:56:52;;;;;;;1.35;1.35;;;15.90;97.60;;;;;;5040209;28;20495;-70
2023/06/12 02:59:22;;;;;;;2.35;1.50;;;15.90;98.90;;;;;;5041179;28;21030;-69
2023/06/12 03:01:49;;;;;;;1.40;1.30;;;15.80;99.90;;;;;;5039375;28;20552;-70
2023/06/12 03:04:19;;;;;;;1.40;1.30;;;15.90;99.90;;;;;;5068074;28;20436;-70
2023/06/12 03:06:54;;;;;;;1.70;1.60;;;15.90;99.90;;;;;;5040358;28;20429;-69
2023/06/12 03:09:22;;;;;;;1.80;1.70;;;16.00;99.90;;;;;;5038598;28;20949;-70
2023/06/12 03:11:51;;;;;;;1.30;1.30;;;16.00;99.90;;;;;;5040739;28;20433;-70
2023/06/12 03:14:21;;;;;;;1.38;1.38;;;16.00;99.90;;;;;;5038104;28;20433;-70
2023/06/12 03:16:48;;;;;;;1.67;1.57;;;16.00;99.90;;;;;;5039653;28;20515;-69
2023/06/12 03:19:16;;;;;;;1.57;1.47;;;16.00;99.90;;;;;;5069625;28;20958;-69
2023/06/12 03:21:43;;;;;;;1.27;1.17;;;16.00;99.90;;;;;;5042845;28;20468;-70
2023/06/12 03:24:10;;;;;;;1.30;1.30;;;16.10;99.90;;;;;;5036995;28;20811;-69
2023/06/12 03:26:38;;;;;;;1.50;1.40;;;16.00;99.90;;;;;;5069177;28;20421;-70
2023/06/12 03:29:05;;;;;;;1.23;1.20;;;16.10;99.90;;;;;;5037049;28;20496;-69
2023/06/12 03:31:32;;;;;;;2.83;1.23;;;16.20;99.90;;;;;;5039072;28;20855;-70
2023/06/12 03:34:00;;;;;;;1.50;1.35;;;16.30;99.90;;;;;;5039318;28;20425;-69
2023/06/12 03:36:28;;;;;;;1.60;1.50;;;16.40;99.90;;;;;;5037457;28;20440;-69
2023/06/12 03:38:55;;;;;;;1.57;1.13;;;16.50;99.90;;;;;;5039628;28;20433;-69
2023/06/12 03:41:23;;;;;;;2.90;1.58;;;16.50;99.90;;;;;;5040160;28;20965;-70
2023/06/12 03:43:50;;;;;;;1.50;1.20;;;16.60;99.90;;;;;;5038303;28;20978;-70
2023/06/12 03:46:17;;;;;;;1.83;1.52;;;16.70;99.90;;;;;;5041573;28;20425;-69
2023/06/12 03:48:46;;;;;;;1.30;1.25;;;16.70;99.90;;;;;;5038438;28;20429;-70
2023/06/12 03:51:13;;;;;;;1.50;1.40;;;16.60;99.90;;;;;;5040085;28;20433;-70
2023/06/12 03:53:40;;;;;;;1.88;1.27;;;16.70;99.90;;;;;;5037468;28;20941;-69
2023/06/12 03:56:07;;;;;;;1.77;1.27;;;16.70;99.90;;;;;;5039409;28;20456;-70
2023/06/12 03:58:34;;;;;;;1.48;1.38;;;16.70;99.90;;;;;;5033884;28;20468;-69
2023/06/12 04:01:01;;;;;;;1.52;1.42;;;16.60;99.90;;;;;;5037308;28;20432;-69
2023/06/12 04:03:28;;;;;;;1.25;1.25;;;16.50;99.90;;;;;;5042341;28;20617;-69
2023/06/12 04:05:55;;;;;;;1.70;1.60;;;16.40;99.90;;;;;;5043285;28;20432;-70
2023/06/12 04:08:24;;;;;;;1.55;1.48;;;16.40;99.90;;;;;;5041318;28;20911;-69
2023/06/12 04:10:52;;;;;;;3.95;1.83;;;16.50;99.90;;;;;;5045460;28;20437;-69
2023/06/12 04:13:19;;;;;;;1.25;1.25;;;16.50;99.90;;;;;;5043828;28;20435;-69
2023/06/12 04:15:47;;;;;;;1.30;1.30;;;16.60;99.90;;;;;;5040928;28;20425;-69
2023/06/12 04:18:14;;;;;;;1.77;1.67;;;16.80;99.90;;;;;;5039492;28;20523;-70
2023/06/12 04:20:41;;;;;;;1.20;1.20;;;16.90;99.90;;;;;;5036638;28;20434;-70
2023/06/12 04:23:11;;;;;;;1.70;1.60;;;17.10;99.90;;;;;;5071535;28;20437;-70
2023/06/12 04:25:42;;;;;;;1.48;1.38;;;17.20;99.90;;;;;;5040098;28;20442;-70
2023/06/12 04:28:13;;;;;;;1.70;1.60;;;17.30;99.90;;;;;;5039351;28;20808;-69
2023/06/12 04:30:41;;;;;;;1.80;1.70;;;17.40;99.90;;;;;;5037049;28;20508;-69
2023/06/12 04:33:11;;;;;;;1.40;1.30;;;17.50;99.90;;;;;;5043198;28;20420;-70
2023/06/12 04:35:38;;;;;;;1.40;1.40;;;17.60;99.90;;;;;;5042785;28;20429;-70
2023/06/12 04:38:05;;;;;;;2.00;1.55;;;17.60;99.90;;;;;;5040444;28;20487;-69
2023/06/12 04:40:35;;;;;;;2.13;1.48;;;17.60;99.90;;;;;;5041648;28;20854;-70
2023/06/12 04:43:06;;;;;;;1.65;1.20;;;18.00;99.90;;;;;;5035757;28;20436;-69
2023/06/12 04:45:34;;;;;;;1.55;1.50;;;18.80;99.90;;;;;;5039017;28;20531;-71
2023/06/12 04:48:01;;;;;;;1.88;1.55;;;19.60;99.90;;;;;;5074567;28;20899;-70
2023/06/12 04:50:30;;;;;;;1.30;1.20;;;20.30;99.90;;;;;;5042224;28;20461;-70
2023/06/12 04:52:57;;;;;;;1.30;1.20;;;21.00;99.90;;;;;;5043549;28;20504;-70
2023/06/12 04:55:28;;;;;;;1.45;1.45;;;21.50;99.90;;;;;;5039913;28;20467;-70
2023/06/12 04:57:55;;;;;;;1.80;1.70;;;21.80;99.90;;;;;;5043309;28;20460;-70
2023/06/12 05:00:28;;;;;;;3.25;1.63;;;22.10;99.90;;;;;;5042745;28;20435;-70
2023/06/12 05:02:56;;;;;;;2.05;1.80;;;22.40;99.60;;;;;;5038474;28;20926;-70
2023/06/12 05:05:23;;;;;;;1.40;1.33;;;22.60;98.80;;;;;;5042503;28;20436;-70
2023/06/12 05:07:50;;;;;;;1.67;1.58;;;22.70;98.10;;;;;;5042900;28;20461;-70
2023/06/12 05:10:17;;;;;;;1.92;1.83;;;22.90;98.30;;;;;;5070374;28;20463;-70
2023/06/12 05:12:43;;;;;;;1.58;1.48;;;23.10;98.20;;;;;;5044066;28;20486;-70
2023/06/12 05:15:12;;;;;;;1.63;1.52;;;23.20;97.60;;;;;;5038459;28;20440;-70
2023/06/12 05:17:39;;;;;;;1.77;1.40;;;23.50;97.80;;;;;;5039618;28;20429;-70
2023/06/12 05:20:08;;;;;;;1.40;1.30;;;23.50;97.20;;;;;;5042524;28;20433;-70
2023/06/12 05:22:36;;;;;;;1.40;1.33;;;23.40;96.40;;;;;;5039687;28;20432;-71
2023/06/12 05:25:04;;;;;;;1.42;1.33;;;23.10;95.80;;;;;;5037330;28;20494;-71
2023/06/12 05:27:31;;;;;;;1.42;1.42;;;23.50;97.60;;;;;;5041304;28;21076;-70
2023/06/12 05:29:58;;;;;;;1.60;1.50;;;23.70;97.40;;;;;;5040099;28;20486;-70
2023/06/12 05:32:25;;;;;;;1.77;1.50;;;24.10;97.70;;;;;;5042305;28;21369;-70
2023/06/12 05:34:52;;;;;;;1.63;1.52;;;24.30;98.20;;;;;;5038882;28;20713;-70
2023/06/12 05:37:21;;;;;;;1.60;1.50;;;24.20;97.30;;;;;;5039319;28;20473;-71
2023/06/12 05:39:48;;;;;;;1.58;1.38;;;24.00;96.60;;;;;;5039133;28;20577;-70
2023/06/12 05:42:15;;;;;;;1.70;1.50;;;24.20;96.80;;;;;;5035219;28;20531;-71
2023/06/12 05:44:48;;;;;;;1.67;1.57;;;24.30;96.70;;;;;;5042057;28;20506;-71
2023/06/12 05:47:15;;;;;;;1.58;1.48;;;24.60;97.30;;;;;;5040263;28;20503;-70
2023/06/12 05:49:42;;;;;;;1.80;1.70;;;24.90;97.70;;;;;;5074596;28;20471;-71
2023/06/12 05:52:11;;;;;;;1.83;1.73;;;24.60;96.70;;;;;;5038716;28;20464;-71
2023/06/12 05:54:37;;;;;;;1.70;1.52;;;24.70;97.40;;;;;;5041899;28;21530;-70
2023/06/12 05:57:04;;;;;;;1.70;1.50;;;24.90;97.20;;;;;;5039366;28;20641;-70
2023/06/12 05:59:31;;;;;;;1.95;1.85;;;24.90;97.20;;;;;;5037151;28;20429;-70
2023/06/12 06:01:59;;;;;;;2.00;1.63;;;25.10;97.40;;;;;;5034282;28;20932;-71
2023/06/12 06:04:28;;;;;;;2.10;1.50;;;25.00;96.90;;;;;;5037353;28;20427;-70
2023/06/12 06:07:00;;;;;;;1.55;1.45;;;25.40;97.60;;;;;;5037778;28;20424;-70
2023/06/12 06:09:43;;;;;;;1.98;1.63;;;25.50;97.90;;;;;;5033461;28;20444;-70
2023/06/12 06:12:10;;;;;;;2.47;1.75;;;25.90;99.00;;;;;;5042150;28;20453;-70
2023/06/12 06:14:37;;;;;;;1.80;1.70;;;26.10;98.50;;;;;;5038427;28;20425;-70
2023/06/12 06:17:03;;;;;;;1.60;1.50;;;25.80;97.90;;;;;;5040082;28;21015;-71
2023/06/12 06:19:30;;;;;;;1.50;1.50;;;25.60;97.20;;;;;;5041606;28;20440;-70
2023/06/12 06:22:04;;;;;;;1.50;1.40;;;25.70;97.20;;;;;;5035838;28;20467;-70
2023/06/12 06:24:32;;;;;;;2.35;1.60;;;26.00;97.80;;;;;;5039285;28;20425;-71
2023/06/12 06:26:58;;;;;;;1.55;1.45;;;25.90;97.90;;;;;;5040689;28;20440;-70
2023/06/12 06:29:25;;;;;;;1.48;1.38;;;25.80;97.30;;;;;;5036464;28;20425;-71
2023/06/12 06:31:52;;;;;;;2.75;1.50;;;26.10;98.00;;;;;;5038675;28;20919;-71
2023/06/12 06:34:19;;;;;;;1.35;1.25;;;25.90;97.40;;;;;;5040330;28;20904;-70
2023/06/12 06:36:46;;;;;;;1.85;1.75;;;26.20;97.80;;;;;;5040864;28;20972;-71
2023/06/12 06:39:15;;;;;;;1.58;1.48;;;26.30;98.00;;;;;;5038388;28;20435;-70
2023/06/12 06:41:42;;;;;;;1.60;1.20;;;26.50;98.40;;;;;;5040885;28;20490;-70
2023/06/12 06:44:09;;;;;;;1.45;1.20;;;25.80;96.70;;;;;;5032639;28;20510;-71
2023/06/12 06:46:36;;;;;;;1.75;1.65;;;26.40;98.00;;;;;;5039296;28;20887;-70
2023/06/12 06:49:03;;;;;;;1.70;1.60;;;26.60;98.90;;;;;;5038620;28;20461;-71
2023/06/12 06:51:31;;;;;;;1.60;1.50;;;26.60;98.90;;;;;;5038391;28;20544;-71
2023/06/12 06:53:58;;;;;;;1.50;1.40;;;26.80;99.40;;;;;;5038765;28;20463;-71
2023/06/12 06:56:29;;;;;;;1.48;1.38;;;27.00;99.90;;;;;;5037817;28;20854;-71
2023/06/12 06:58:55;;;;;;;1.73;1.63;;;27.20;99.80;;;;;;5034087;28;20428;-71
2023/06/12 07:01:22;;;;;;;2.00;1.70;;;27.00;99.30;;;;;;5035863;28;20795;-70
2023/06/12 07:03:50;;;;;;;1.55;1.45;;;26.50;97.60;;;;;;5037566;28;20455;-71
2023/06/12 07:06:17;;;;;;;1.30;1.30;;;26.60;97.70;;;;;;5035644;28;20527;-71
2023/06/12 07:08:44;;;;;;;1.48;1.38;;;26.80;98.60;;;;;;5037697;28;20558;-71
2023/06/12 07:11:11;;;;;;;3.10;1.67;;;27.10;99.10;;;;;;5040052;28;20927;-71
2023/06/12 07:13:42;;;;;;;1.60;1.50;;;27.10;99.20;;;;;;5037742;28;20609;-70
2023/06/12 07:16:09;;;;;;;2.20;1.55;;;27.00;99.30;;;;;;5036168;28;20787;-71
2023/06/12 07:18:36;;;;;;;1.65;1.55;;;27.10;99.90;;;;;;5038345;28;20468;-71
2023/06/12 07:21:03;;;;;;;1.77;1.67;;;27.30;99.60;;;;;;5066659;28;20428;-71
2023/06/12 07:23:30;;;;;;;1.77;1.67;;;27.70;99.90;;;;;;5039751;28;20435;-71
2023/06/12 07:25:56;;;;;;;1.58;1.50;;;27.60;99.90;;;;;;5038528;28;20899;-71
2023/06/12 07:28:23;;;;;;;1.55;1.45;;;27.30;99.00;;;;;;5035779;28;20431;-71
2023/06/12 07:30:50;;;;;;;1.50;1.40;;;27.20;99.00;;;;;;5070011;28;21442;-71
2023/06/12 07:33:17;;;;;;;1.52;1.42;;;27.40;99.30;;;;;;5037925;28;20994;-71
2023/06/12 07:35:44;;;;;;;2.17;1.73;;;27.30;99.00;;;;;;5038556;28;20542;-71
2023/06/12 07:38:12;;;;;;;2.88;1.95;;;26.70;97.50;;;;;;5039838;28;20493;-71
2023/06/12 07:40:42;;;;;;;1.55;1.50;;;27.10;98.70;;;;;;5037598;28;20437;-73
2023/06/12 07:43:08;;;;;;;3.45;1.73;;;27.80;99.90;;;;;;5038005;28;20510;-71
2023/06/12 07:45:38;;;;;;;2.00;1.55;;;28.00;99.90;;;;;;5039041;28;20540;-70
2023/06/12 07:48:05;;;;;;;1.55;1.45;;;28.30;99.90;;;;;;5041653;28;20425;-71
2023/06/12 07:50:32;;;;;;;1.48;1.38;;;28.80;99.90;;;;;;5035060;28;20428;-70
2023/06/12 07:53:02;;;;;;;1.48;1.33;;;28.80;99.90;;;;;;5039349;28;20881;-70
2023/06/12 07:55:30;;;;;;;3.58;2.05;;;29.60;99.90;;;;;;5036576;28;20564;-70
2023/06/12 07:57:57;;;;;;;1.63;1.60;;;29.60;99.90;;;;;;5036803;28;20441;-70
2023/06/12 08:00:26;;;;;;;1.80;1.40;;;28.80;99.90;;;;;;5036837;28;20433;-70
2023/06/12 08:02:59;;;;;;;1.65;1.60;;;29.30;99.90;;;;;;5040057;28;20809;-70
2023/06/12 08:05:34;;;;;;;2.40;1.70;;;29.40;99.90;;;;;;5039263;28;20437;-70
2023/06/12 08:08:01;;;;;;;2.08;1.88;;;28.70;99.90;;;;;;5069025;28;21049;-70
2023/06/12 08:10:28;;;;;;;1.80;1.70;;;28.40;99.90;;;;;;5034026;28;20421;-69
2023/06/12 08:12:54;;;;;;;1.50;1.40;;;28.20;99.90;;;;;;5039502;28;20618;-70
2023/06/12 08:15:22;;;;;;;1.30;1.30;;;28.60;99.90;;;;;;5033974;28;20457;-70
2023/06/12 08:17:53;;;;;;;1.98;1.65;;;28.30;99.90;;;;;;5028771;28;20446;-70
2023/06/12 08:20:20;;;;;;;1.57;1.47;;;28.20;99.90;;;;;;5027965;28;20474;-70
2023/06/12 08:22:47;;;;;;;1.55;1.45;;;28.60;99.90;;;;;;5032230;28;20474;-69
2023/06/12 08:25:14;;;;;;;2.03;1.80;;;28.80;99.90;;;;;;5031105;28;20433;-70
2023/06/12 08:27:42;;;;;;;2.08;1.98;;;28.90;99.90;;;;;;5029133;28;20957;-71
2023/06/12 08:30:09;;;;;;;1.97;1.77;;;29.00;99.90;;;;;;5033655;28;20555;-71
2023/06/12 08:32:36;;;;;;;1.90;1.80;;;28.90;99.90;;;;;;5030725;28;20557;-73
2023/06/12 08:35:04;;;;;;;2.10;1.63;;;28.80;99.90;;;;;;5036085;28;20443;-71
2023/06/12 08:37:32;;;;;;;1.52;1.50;;;28.30;99.90;;;;;;5037581;28;20437;-70
2023/06/12 08:40:00;;;;;;;2.10;2.00;;;28.40;99.90;;;;;;5037154;28;20455;-70
2023/06/12 08:42:27;;;;;;;2.83;1.90;;;28.70;99.90;;;;;;5031997;28;20439;-70
2023/06/12 08:45:03;;;;;;;1.20;1.20;;;28.30;99.90;;;;;;5030423;28;20433;-70
2023/06/12 08:47:48;;;;;;;1.80;1.50;;;28.60;99.90;;;;;;5034755;28;20433;-70
2023/06/12 08:50:17;;;;;;;1.60;1.50;;;28.80;99.90;;;;;;5039269;28;20873;-71
2023/06/12 08:52:44;;;;;;;1.60;1.50;;;28.80;99.90;;;;;;5039561;28;20986;-70
2023/06/12 08:55:15;;;;;;;2.10;1.85;;;28.40;99.90;;;;;;5040275;28;20433;-71
2023/06/12 08:57:43;;;;;;;1.58;1.42;;;28.40;99.90;;;;;;5036980;28;20437;-71
2023/06/12 09:00:13;;;;;;;1.35;1.25;;;28.60;99.90;;;;;;5041489;28;20482;-71
2023/06/12 09:02:45;;;;;;;1.77;1.67;;;28.60;99.90;;;;;;5040601;28;20441;-70
2023/06/12 09:05:17;;;;;;;1.20;1.20;;;28.90;99.90;;;;;;5040494;28;20467;-71
2023/06/12 09:07:47;;;;;;;1.50;1.40;;;28.80;99.90;;;;;;5037867;28;20487;-69
2023/06/12 09:10:14;;;;;;;1.75;1.50;;;28.90;99.90;;;;;;5040237;28;20437;-71
2023/06/12 09:12:45;;;;;;;1.83;1.73;;;29.10;99.90;;;;;;5044784;28;20923;-71
2023/06/12 09:15:18;;;;;;;1.90;1.70;;;29.10;99.90;;;;;;5071201;28;20436;-71
2023/06/12 09:17:55;;;;;;;1.60;1.52;;;29.10;99.90;;;;;;5039464;28;20433;-70
2023/06/12 09:20:28;;;;;;;1.60;1.50;;;29.10;99.90;;;;;;5042398;28;20470;-70
2023/06/12 09:22:58;;;;;;;1.50;1.40;;;29.10;99.90;;;;;;5041798;28;20487;-70
2023/06/12 09:25:37;;;;;;;1.80;1.70;;;29.20;99.90;;;;;;5042078;28;20487;-71
2023/06/12 09:28:04;;;;;;;1.75;1.65;;;29.10;99.90;;;;;;5035482;28;20524;-71
2023/06/12 09:30:32;;;;;;;1.35;1.35;;;29.40;99.90;;;;;;5063014;28;20436;-71
2023/06/12 09:33:00;;;;;;;2.28;1.42;;;28.80;99.90;;;;;;5033083;28;20509;-70
2023/06/12 09:35:27;;;;;;;1.42;1.42;;;29.10;99.90;;;;;;5031018;28;20498;-71
2023/06/12 09:37:56;;;;;;;1.43;1.37;;;29.70;99.90;;;;;;5031719;28;20548;-70
2023/06/12 09:40:22;;;;;;;1.70;1.60;;;29.90;99.90;;;;;;5032863;28;20428;-71
2023/06/12 09:42:50;;;;;;;1.60;1.50;;;29.90;99.90;;;;;;5034778;28;20519;-71
2023/06/12 09:45:20;;;;;;;1.42;1.38;;;30.40;99.90;;;;;;5031872;28;20468;-71
2023/06/12 09:47:51;;;;;;;1.70;1.60;;;30.80;99.90;;;;;;5033256;28;20462;-71
2023/06/12 09:50:19;;;;;;;2.70;1.87;;;30.40;99.90;;;;;;5031558;28;20516;-71
2023/06/12 09:52:48;;;;;;;1.45;1.42;;;30.70;99.90;;;;;;5031970;28;20510;-71
2023/06/12 09:55:16;;;;;;;1.40;1.40;;;30.90;99.90;;;;;;5029890;28;20534;-70
2023/06/12 09:57:49;;;;;;;1.80;1.70;;;31.00;99.90;;;;;;5035563;28;20486;-71
2023/06/12 10:00:16;;;;;;;2.00;1.90;;;30.30;99.90;;;;;;5037821;28;20509;-70
2023/06/12 10:03:09;;;;;;;2.00;1.90;;;30.20;99.90;;;;;;5039158;28;20927;-70
2023/06/12 10:05:42;;;;;;;2.22;1.85;;;29.80;99.90;;;;;;5035817;28;20885;-71
2023/06/12 10:08:11;;;;;;;1.38;1.30;;;29.80;99.90;;;;;;5041219;28;20435;-70
2023/06/12 10:10:40;;;;;;;1.83;1.73;;;30.70;99.90;;;;;;5040657;28;20461;-71
2023/06/12 10:13:07;;;;;;;1.67;1.67;;;30.80;99.90;;;;;;5043486;28;20524;-71
2023/06/12 10:15:34;;;;;;;1.77;1.63;;;30.30;99.90;;;;;;5041372;28;20851;-71
2023/06/12 10:18:01;;;;;;;1.85;1.75;;;30.10;99.90;;;;;;5072067;28;20512;-71
2023/06/12 10:20:31;;;;;;;1.50;1.50;;;29.30;99.90;;;;;;5038364;28;20481;-71
2023/06/12 10:22:58;;;;;;;1.88;1.77;;;28.70;99.90;;;;;;5040658;28;20428;-70
2023/06/12 10:25:26;;;;;;;1.50;1.50;;;28.40;99.10;;;;;;5040150;28;20462;-70
2023/06/12 10:27:53;;;;;;;2.05;1.85;;;27.50;96.60;;;;;;5039151;28;21034;-72
2023/06/12 10:30:20;;;;;;;1.85;1.60;;;27.00;95.10;;;;;;5042678;28;20522;-71
2023/06/12 10:32:51;;;;;;;3.97;1.77;;;26.90;95.40;;;;;;5039423;28;20455;-71
2023/06/12 10:35:30;;;;;;;2.00;1.90;;;27.40;96.20;;;;;;5038689;28;20455;-71
2023/06/12 10:38:02;;;;;;;1.83;1.73;;;28.50;99.90;;;;;;5033557;28;20463;-71
2023/06/12 10:40:30;;;;;;;2.42;1.67;;;29.50;99.90;;;;;;5031731;28;20464;-71
2023/06/12 10:43:13;;;;;;;1.67;1.58;;;30.60;99.90;;;;;;5036366;28;20514;-71
2023/06/12 10:45:56;;;;;;;1.65;1.55;;;31.00;99.90;;;;;;5031155;28;20444;-71
2023/06/12 10:48:23;;;;;;;1.77;1.67;;;31.00;99.90;;;;;;5067398;28;20436;-71
2023/06/12 10:50:53;;;;;;;1.50;1.50;;;30.80;99.90;;;;;;5035890;28;20854;-71
2023/06/12 10:53:29;;;;;;;1.70;1.60;;;30.40;99.90;;;;;;5031175;28;20507;-71
2023/06/12 10:56:11;;;;;;;1.73;1.67;;;30.00;99.90;;;;;;5029261;28;20438;-71
2023/06/12 10:58:41;;;;;;;1.88;1.77;;;30.00;99.90;;;;;;5032085;28;20487;-72
2023/06/12 11:01:12;;;;;;;1.80;1.70;;;30.90;99.90;;;;;;5032746;28;20437;-72
2023/06/12 11:03:42;;;;;;;2.63;1.92;;;30.20;99.90;;;;;;5032455;28;21518;-71
2023/06/12 11:06:15;;;;;;;1.88;1.73;;;29.40;99.10;;;;;;5034696;28;20455;-71
2023/06/12 11:08:46;;;;;;;1.50;1.30;;;28.80;97.50;;;;;;5033751;28;20445;-71
2023/06/12 11:11:14;;;;;;;1.63;1.53;;;29.00;98.00;;;;;;5040926;28;21076;-71
2023/06/12 11:13:45;;;;;;;1.60;1.50;;;28.70;97.20;;;;;;5031788;28;20433;-71
2023/06/12 11:16:26;;;;;;;1.70;1.60;;;28.20;95.60;;;;;;5031420;28;20431;-71
2023/06/12 11:19:05;;;;;;;1.92;1.80;;;27.80;94.00;;;;;;5062983;28;22466;-71
2023/06/12 11:21:37;;;;;;;4.50;1.70;;;28.10;97.50;;;;;;5034582;28;20437;-71
2023/06/12 11:24:06;;;;;;;1.60;1.50;;;28.40;95.30;;;;;;5034033;28;20438;-71
2023/06/12 11:26:35;;;;;;;1.40;1.40;;;28.80;96.10;;;;;;5041582;28;20791;-71
2023/06/12 11:29:15;;;;;;;1.63;1.52;;;28.80;96.80;;;;;;5040284;28;20433;-71
2023/06/12 11:31:50;;;;;;;1.70;1.60;;;28.80;96.10;;;;;;5038726;28;20429;-72
2023/06/12 11:34:17;;;;;;;1.58;1.40;;;29.30;97.10;;;;;;5039996;28;20435;-70
2023/06/12 11:36:44;;;;;;;3.75;1.70;;;29.60;98.20;;;;;;5037003;28;20486;-71
2023/06/12 11:39:18;;;;;;;2.25;1.90;;;29.80;98.60;;;;;;5038335;28;20514;-71
2023/06/12 11:41:49;;;;;;;2.55;1.90;;;30.20;99.20;;;;;;5035883;28;20420;-71
2023/06/12 11:44:16;;;;;;;2.25;1.73;;;29.80;98.90;;;;;;5037247;28;20429;-71
2023/06/12 11:46:44;;;;;;;1.70;1.60;;;29.90;98.60;;;;;;5040085;28;20498;-72
2023/06/12 11:49:13;;;;;;;1.48;1.38;;;30.50;99.80;;;;;;5037491;28;20517;-71
2023/06/12 11:51:40;;;;;;;1.63;1.52;;;30.40;99.90;;;;;;5036528;28;20432;-71
2023/06/12 11:54:09;;;;;;;1.73;1.63;;;29.90;99.20;;;;;;5066234;28;20425;-71
2023/06/12 11:56:41;;;;;;;2.72;1.95;;;29.40;97.50;;;;;;5062076;28;20437;-72
2023/06/12 11:59:13;;;;;;;1.80;1.70;;;29.40;97.20;;;;;;5063972;28;20430;-71
2023/06/12 12:01:41;;;;;;;1.77;1.60;;;29.80;98.60;;;;;;5032989;28;20433;-71
2023/06/12 12:04:10;;;;;;;4.30;1.60;;;29.60;98.10;;;;;;5039229;28;20445;-71
2023/06/12 12:06:47;;;;;;;2.03;1.93;;;29.40;97.50;;;;;;5034713;28;22512;-71
2023/06/12 12:09:14;;;;;;;1.63;1.52;;;29.10;96.70;;;;;;5034330;28;20429;-71
2023/06/12 12:11:43;;;;;;;1.90;1.80;;;29.30;96.70;;;;;;5040826;28;20468;-71
2023/06/12 12:14:10;;;;;;;1.50;1.40;;;29.60;97.80;;;;;;5037528;28;20482;-71
2023/06/12 12:16:45;;;;;;;1.65;1.55;;;29.90;98.40;;;;;;5033699;28;20520;-72
2023/06/12 12:19:29;;;;;;;1.67;1.58;;;29.80;98.00;;;;;;5034908;28;20422;-72
2023/06/12 12:21:57;;;;;;;1.70;1.60;;;29.60;97.40;;;;;;5035383;28;20433;-71
2023/06/12 12:24:24;;;;;;;1.85;1.55;;;30.00;98.50;;;;;;5035736;28;20428;-72
2023/06/12 12:26:57;;;;;;;1.77;1.67;;;30.30;99.70;;;;;;5035930;28;20425;-72
2023/06/12 12:29:28;;;;;;;1.40;1.30;;;30.00;98.70;;;;;;5041290;28;20608;-70
2023/06/12 12:31:55;;;;;;;1.80;1.70;;;29.60;97.30;;;;;;5040155;28;20435;-70
2023/06/12 12:34:21;;;;;;;2.08;1.88;;;29.40;96.40;;;;;;5042675;28;20425;-69
2023/06/12 12:36:49;;;;;;;4.90;2.13;;;28.80;95.00;;;;;;5042019;28;20425;-73
2023/06/12 12:39:18;;;;;;;1.58;1.58;;;28.80;95.00;;;;;;5040661;28;20533;-73
2023/06/12 12:41:45;;;;;;;1.50;1.30;;;29.00;95.40;;;;;;5043564;28;20563;-72
2023/06/12 12:44:12;;;;;;;2.03;1.92;;;29.40;96.70;;;;;;5037371;28;20499;-70
2023/06/12 12:46:42;;;;;;;1.60;1.50;;;29.90;98.00;;;;;;5037725;28;21111;-70
2023/06/12 12:49:11;;;;;;;1.83;1.45;;;30.30;98.60;;;;;;5037398;28;21066;-70
2023/06/12 12:51:37;;;;;;;2.03;1.75;;;30.40;99.50;;;;;;5035261;28;20428;-70
2023/06/12 12:54:04;;;;;;;3.75;1.42;;;30.40;99.30;;;;;;5033123;28;20468;-71
2023/06/12 12:56:31;;;;;;;1.23;1.20;;;29.50;97.10;;;;;;5031703;28;20520;-71
2023/06/12 12:58:58;;;;;;;2.03;1.70;;;29.00;95.60;;;;;;5032956;28;20471;-70